Guidonia, Italy

4:43 AM CEST on August 24, 2016 (GMT +0200)
Tivoli | | Change Station

Elev 0 ft 41.96 °N, 12.80 °E | Updated 12 minutes ago

Clear
Clear
71.4 °F
Feels Like 77 °F
N
8.0
Wind Variable Wind from ESE
Gusts 13.0 mph

Today
High -- | Low -- °F
--% Chance of Precip.
Yesterday
High -- | Low -- °F
Precip. -- in
Pressure 30.04 in
Visibility -9999.0 miles
Clouds
Heat Index 77 °F
Dew Point 53 °F
Humidity 52%
Rainfall 0.00 in
Snow Depth Not available.
6:26 AM 7:55 PM
Waning Gibbous, 62% visible
METAR LIRA 240220Z 02006KT CAVOK 21/10 Q1017
Pressure 30.04 in
Visibility -9999.0 miles
Clouds
Heat Index 77 °F
Dew Point 53 °F
Humidity 52%
Rainfall 0.00 in
Snow Depth Not available.
6:26 AM 7:55 PM
Waning Gibbous, 62% visible
METAR LIRA 240220Z 02006KT CAVOK 21/10 Q1017

10-Day Weather Forecast

×

Almanac

Astronomy

Aug. 24, 2016 Rise Set
Actual Time
Civil Twilight
Nautical Twilight
Astronomical Twilight
Moon
Length of Visible Light
Length of Day
Tomorrow will be .
, % of the Moon is Illuminated

Today's Extremes

Country Highs Country Lows

Community

WunderPhotos

Upload Photos

1,934,533 photos uploaded!

WunderBlog® & News

Nearby

Air Quality

  Air Quality AQ Index Pollutant
Not available.

Snow Depth

Station Depth Elevation

Earthquake Activity

City Distance Mag. Time & Date
Minimum magnitude displayed is 2.5.

Coastal Water Temperatures

Place Temperature

Stations

Nearby Weather Stations

Station Location Temp. Windchill Dew Point Humidity Wind Precip. Elev Updated Type